sensor_id;sensor_type;location;lat;lon;timestamp;pressure;altitude;pressure_sealevel;temperature;humidity
37972;BME280;23794;48.234;8.344;2023-02-19T00:01:42;94864.50;;;8.66;68.83
37972;BME280;23794;48.234;8.344;2023-02-19T00:04:17;94862.19;;;8.68;68.68
37972;BME280;23794;48.234;8.344;2023-02-19T00:06:45;94853.56;;;8.66;68.55
37972;BME280;23794;48.234;8.344;2023-02-19T00:09:14;94853.19;;;8.67;68.39
37972;BME280;23794;48.234;8.344;2023-02-19T00:11:41;94844.22;;;8.67;68.62
37972;BME280;23794;48.234;8.344;2023-02-19T00:14:10;94837.22;;;8.70;68.48
37972;BME280;23794;48.234;8.344;2023-02-19T00:16:40;94841.50;;;8.67;68.43
37972;BME280;23794;48.234;8.344;2023-02-19T00:19:12;94841.78;;;8.58;68.89
37972;BME280;23794;48.234;8.344;2023-02-19T00:21:39;94844.53;;;8.58;68.38
37972;BME280;23794;48.234;8.344;2023-02-19T00:24:06;94844.56;;;8.62;68.52
37972;BME280;23794;48.234;8.344;2023-02-19T00:26:33;94839.06;;;8.58;68.11
37972;BME280;23794;48.234;8.344;2023-02-19T00:29:00;94840.53;;;8.52;67.08
37972;BME280;23794;48.234;8.344;2023-02-19T00:31:32;94841.72;;;8.51;67.52
37972;BME280;23794;48.234;8.344;2023-02-19T00:34:03;94827.25;;;8.50;68.00
37972;BME280;23794;48.234;8.344;2023-02-19T00:36:31;94832.25;;;8.45;68.37
37972;BME280;23794;48.234;8.344;2023-02-19T00:38:58;94854.03;;;8.41;67.49
37972;BME280;23794;48.234;8.344;2023-02-19T00:41:24;94845.56;;;8.46;67.33
37972;BME280;23794;48.234;8.344;2023-02-19T00:43:53;94839.63;;;8.41;66.30
37972;BME280;23794;48.234;8.344;2023-02-19T00:46:35;94848.16;;;8.35;66.15
37972;BME280;23794;48.234;8.344;2023-02-19T00:49:03;94850.47;;;8.33;66.86
37972;BME280;23794;48.234;8.344;2023-02-19T00:51:36;94851.31;;;8.41;66.76
37972;BME280;23794;48.234;8.344;2023-02-19T00:54:04;94837.97;;;8.32;66.25
37972;BME280;23794;48.234;8.344;2023-02-19T00:56:31;94841.03;;;8.27;66.52
37972;BME280;23794;48.234;8.344;2023-02-19T00:58:58;94839.50;;;8.30;65.77
37972;BME280;23794;48.234;8.344;2023-02-19T01:01:25;94834.31;;;8.21;66.02
37972;BME280;23794;48.234;8.344;2023-02-19T01:03:52;94836.34;;;8.28;66.32
37972;BME280;23794;48.234;8.344;2023-02-19T01:06:19;94832.06;;;8.30;67.41
37972;BME280;23794;48.234;8.344;2023-02-19T01:08:46;94830.44;;;8.26;66.76
37972;BME280;23794;48.234;8.344;2023-02-19T01:11:13;94819.09;;;8.20;66.58
37972;BME280;23794;48.234;8.344;2023-02-19T01:13:41;94823.03;;;8.23;66.13
37972;BME280;23794;48.234;8.344;2023-02-19T01:16:17;94820.81;;;8.32;64.86
37972;BME280;23794;48.234;8.344;2023-02-19T01:18:44;94826.53;;;8.23;65.73
37972;BME280;23794;48.234;8.344;2023-02-19T01:21:14;94826.44;;;8.16;65.54
37972;BME280;23794;48.234;8.344;2023-02-19T01:23:42;94824.94;;;8.22;64.89
37972;BME280;23794;48.234;8.344;2023-02-19T01:26:15;94821.41;;;8.18;65.31
37972;BME280;23794;48.234;8.344;2023-02-19T01:28:43;94806.97;;;8.17;65.04
37972;BME280;23794;48.234;8.344;2023-02-19T01:31:16;94803.03;;;8.15;65.56
37972;BME280;23794;48.234;8.344;2023-02-19T01:33:45;94791.97;;;8.04;65.46
37972;BME280;23794;48.234;8.344;2023-02-19T01:36:13;94787.69;;;8.03;65.52
37972;BME280;23794;48.234;8.344;2023-02-19T01:38:40;94780.28;;;8.03;65.67
37972;BME280;23794;48.234;8.344;2023-02-19T01:41:10;94792.03;;;8.08;65.77
37972;BME280;23794;48.234;8.344;2023-02-19T01:44:03;94807.66;;;8.11;65.21
37972;BME280;23794;48.234;8.344;2023-02-19T01:46:30;94813.91;;;8.11;65.45
37972;BME280;23794;48.234;8.344;2023-02-19T01:49:02;94821.25;;;8.07;65.35
37972;BME280;23794;48.234;8.344;2023-02-19T01:51:30;94816.53;;;8.04;65.62
37972;BME280;23794;48.234;8.344;2023-02-19T01:54:01;94816.81;;;7.95;65.51
37972;BME280;23794;48.234;8.344;2023-02-19T01:56:31;94816.03;;;7.95;66.10
37972;BME280;23794;48.234;8.344;2023-02-19T01:59:00;94816.41;;;7.93;65.86
37972;BME280;23794;48.234;8.344;2023-02-19T02:01:27;94801.56;;;7.91;66.17
37972;BME280;23794;48.234;8.344;2023-02-19T02:03:54;94811.38;;;7.95;66.22
37972;BME280;23794;48.234;8.344;2023-02-19T02:06:28;94811.22;;;7.84;66.05
37972;BME280;23794;48.234;8.344;2023-02-19T02:08:57;94807.53;;;7.73;66.87
37972;BME280;23794;48.234;8.344;2023-02-19T02:11:51;94805.66;;;7.77;66.35
37972;BME280;23794;48.234;8.344;2023-02-19T02:14:23;94792.31;;;7.68;67.00
37972;BME280;23794;48.234;8.344;2023-02-19T02:19:32;94767.34;;;7.66;66.99
37972;BME280;23794;48.234;8.344;2023-02-19T02:25:28;94778.59;;;7.65;67.02
37972;BME280;23794;48.234;8.344;2023-02-19T02:31:42;94784.03;;;7.65;67.62
37972;BME280;23794;48.234;8.344;2023-02-19T02:34:33;94783.66;;;7.63;67.36
37972;BME280;23794;48.234;8.344;2023-02-19T02:37:06;94784.66;;;7.51;67.65
37972;BME280;23794;48.234;8.344;2023-02-19T02:39:35;94795.84;;;7.46;68.30
37972;BME280;23794;48.234;8.344;2023-02-19T02:42:03;94798.56;;;7.46;68.09
37972;BME280;23794;48.234;8.344;2023-02-19T02:48:08;94786.81;;;7.41;68.39
37972;BME280;23794;48.234;8.344;2023-02-19T02:56:38;94774.28;;;7.37;69.61
37972;BME280;23794;48.234;8.344;2023-02-19T02:59:08;94761.34;;;7.30;71.03
37972;BME280;23794;48.234;8.344;2023-02-19T03:01:43;94761.91;;;7.16;71.29
37972;BME280;23794;48.234;8.344;2023-02-19T03:04:38;94757.91;;;7.10;72.59
37972;BME280;23794;48.234;8.344;2023-02-19T03:07:31;94751.38;;;6.91;74.24
37972;BME280;23794;48.234;8.344;2023-02-19T03:10:02;94738.06;;;6.86;73.88
37972;BME280;23794;48.234;8.344;2023-02-19T03:12:31;94713.44;;;6.79;74.19
37972;BME280;23794;48.234;8.344;2023-02-19T03:15:18;94717.19;;;6.71;74.23
37972;BME280;23794;48.234;8.344;2023-02-19T03:18:07;94711.31;;;6.69;74.21
37972;BME280;23794;48.234;8.344;2023-02-19T03:20:55;94709.63;;;6.60;74.62
37972;BME280;23794;48.234;8.344;2023-02-19T03:23:26;94723.66;;;6.63;73.94
37972;BME280;23794;48.234;8.344;2023-02-19T03:26:15;94726.09;;;6.68;74.25
37972;BME280;23794;48.234;8.344;2023-02-19T03:28:50;94731.25;;;6.73;73.47
37972;BME280;23794;48.234;8.344;2023-02-19T03:31:41;94726.44;;;6.66;73.51
37972;BME280;23794;48.234;8.344;2023-02-19T03:34:13;94736.97;;;6.68;74.20
37972;BME280;23794;48.234;8.344;2023-02-19T03:36:49;94728.88;;;6.71;73.93
37972;BME280;23794;48.234;8.344;2023-02-19T03:39:21;94736.63;;;6.69;73.70
37972;BME280;23794;48.234;8.344;2023-02-19T03:42:04;94735.13;;;6.72;73.39
37972;BME280;23794;48.234;8.344;2023-02-19T04:01:36;94736.88;;;6.84;72.82
37972;BME280;23794;48.234;8.344;2023-02-19T04:04:11;94741.63;;;6.90;72.46
37972;BME280;23794;48.234;8.344;2023-02-19T04:06:41;94729.25;;;6.93;72.11
37972;BME280;23794;48.234;8.344;2023-02-19T04:09:10;94727.59;;;6.88;72.16
37972;BME280;23794;48.234;8.344;2023-02-19T04:11:41;94727.84;;;6.80;72.31
37972;BME280;23794;48.234;8.344;2023-02-19T04:14:16;94739.16;;;6.82;72.02
37972;BME280;23794;48.234;8.344;2023-02-19T04:16:48;94730.22;;;6.81;72.01
37972;BME280;23794;48.234;8.344;2023-02-19T04:19:19;94731.06;;;6.85;71.53
37972;BME280;23794;48.234;8.344;2023-02-19T04:21:49;94716.59;;;6.81;71.83
37972;BME280;23794;48.234;8.344;2023-02-19T04:24:24;94720.94;;;6.86;71.64
37972;BME280;23794;48.234;8.344;2023-02-19T04:26:52;94716.94;;;6.80;71.66
37972;BME280;23794;48.234;8.344;2023-02-19T04:29:20;94722.41;;;6.80;71.56
37972;BME280;23794;48.234;8.344;2023-02-19T04:31:47;94717.00;;;6.83;71.72
37972;BME280;23794;48.234;8.344;2023-02-19T04:34:13;94720.53;;;6.84;70.95
37972;BME280;23794;48.234;8.344;2023-02-19T04:36:40;94722.50;;;6.87;71.38
37972;BME280;23794;48.234;8.344;2023-02-19T04:39:07;94717.81;;;6.84;71.47
37972;BME280;23794;48.234;8.344;2023-02-19T04:41:34;94723.25;;;6.84;71.45
37972;BME280;23794;48.234;8.344;2023-02-19T04:44:00;94728.75;;;6.87;71.16
37972;BME280;23794;48.234;8.344;2023-02-19T04:46:27;94726.81;;;6.88;71.04
37972;BME280;23794;48.234;8.344;2023-02-19T04:48:54;94719.31;;;6.81;71.39
37972;BME280;23794;48.234;8.344;2023-02-19T04:51:21;94726.38;;;6.86;70.94
37972;BME280;23794;48.234;8.344;2023-02-19T04:53:48;94735.66;;;6.81;71.25
37972;BME280;23794;48.234;8.344;2023-02-19T04:56:15;94740.38;;;6.84;71.01
37972;BME280;23794;48.234;8.344;2023-02-19T04:58:43;94741.16;;;6.85;70.85
37972;BME280;23794;48.234;8.344;2023-02-19T05:01:11;94735.84;;;6.92;70.95
37972;BME280;23794;48.234;8.344;2023-02-19T05:03:38;94736.63;;;6.92;70.94
37972;BME280;23794;48.234;8.344;2023-02-19T05:06:07;94744.72;;;6.89;71.08
37972;BME280;23794;48.234;8.344;2023-02-19T05:08:34;94746.72;;;6.92;70.74
37972;BME280;23794;48.234;8.344;2023-02-19T05:11:03;94760.75;;;6.94;70.63
37972;BME280;23794;48.234;8.344;2023-02-19T05:13:30;94751.03;;;6.93;71.12
37972;BME280;23794;48.234;8.344;2023-02-19T05:16:10;94740.38;;;6.84;71.80
37972;BME280;23794;48.234;8.344;2023-02-19T05:18:43;94759.00;;;6.82;71.32
37972;BME280;23794;48.234;8.344;2023-02-19T05:21:10;94759.63;;;6.72;71.87
37972;BME280;23794;48.234;8.344;2023-02-19T05:23:38;94776.06;;;6.79;71.85
37972;BME280;23794;48.234;8.344;2023-02-19T05:26:12;94770.63;;;6.79;72.13
37972;BME280;23794;48.234;8.344;2023-02-19T05:28:39;94777.09;;;6.71;72.54
37972;BME280;23794;48.234;8.344;2023-02-19T05:31:07;94776.00;;;6.75;72.33
37972;BME280;23794;48.234;8.344;2023-02-19T05:33:35;94783.63;;;6.66;72.81
37972;BME280;23794;48.234;8.344;2023-02-19T05:36:06;94793.38;;;6.67;73.14
37972;BME280;23794;48.234;8.344;2023-02-19T05:38:33;94796.34;;;6.58;73.68
37972;BME280;23794;48.234;8.344;2023-02-19T05:41:08;94795.25;;;6.43;74.92
37972;BME280;23794;48.234;8.344;2023-02-19T05:43:37;94802.06;;;6.34;75.77
37972;BME280;23794;48.234;8.344;2023-02-19T05:46:05;94792.34;;;6.33;75.55
37972;BME280;23794;48.234;8.344;2023-02-19T05:48:32;94814.09;;;6.33;76.01
37972;BME280;23794;48.234;8.344;2023-02-19T05:51:07;94806.72;;;6.33;76.39
37972;BME280;23794;48.234;8.344;2023-02-19T05:53:35;94813.91;;;6.22;76.74
37972;BME280;23794;48.234;8.344;2023-02-19T05:56:03;94815.84;;;6.21;77.46
37972;BME280;23794;48.234;8.344;2023-02-19T05:58:30;94824.25;;;6.16;78.17
37972;BME280;23794;48.234;8.344;2023-02-19T06:00:57;94818.31;;;6.10;78.04
37972;BME280;23794;48.234;8.344;2023-02-19T06:03:23;94821.03;;;6.10;77.78
37972;BME280;23794;48.234;8.344;2023-02-19T06:05:50;94822.59;;;6.11;77.95
37972;BME280;23794;48.234;8.344;2023-02-19T06:08:17;94814.13;;;6.13;77.69
37972;BME280;23794;48.234;8.344;2023-02-19T06:10:43;94829.41;;;6.02;78.52
37972;BME280;23794;48.234;8.344;2023-02-19T06:13:10;94827.97;;;6.08;78.61
37972;BME280;23794;48.234;8.344;2023-02-19T06:15:38;94832.28;;;6.09;78.75
37972;BME280;23794;48.234;8.344;2023-02-19T06:18:04;94830.69;;;6.08;78.49
37972;BME280;23794;48.234;8.344;2023-02-19T06:20:31;94842.94;;;5.98;78.93
37972;BME280;23794;48.234;8.344;2023-02-19T06:22:58;94844.44;;;5.95;79.06
37972;BME280;23794;48.234;8.344;2023-02-19T06:25:25;94858.41;;;5.94;79.43
37972;BME280;23794;48.234;8.344;2023-02-19T06:27:51;94867.94;;;5.88;79.75
37972;BME280;23794;48.234;8.344;2023-02-19T06:30:18;94870.59;;;5.84;79.72
37972;BME280;23794;48.234;8.344;2023-02-19T06:32:45;94871.31;;;5.81;80.32
37972;BME280;23794;48.234;8.344;2023-02-19T06:35:12;94877.44;;;5.78;80.14
37972;BME280;23794;48.234;8.344;2023-02-19T06:37:39;94866.25;;;5.63;81.19
37972;BME280;23794;48.234;8.344;2023-02-19T06:40:06;94890.53;;;5.56;81.14
37972;BME280;23794;48.234;8.344;2023-02-19T06:42:33;94890.44;;;5.53;81.23
37972;BME280;23794;48.234;8.344;2023-02-19T06:45:01;94904.47;;;5.55;81.46
37972;BME280;23794;48.234;8.344;2023-02-19T06:47:32;94893.78;;;5.46;82.02
37972;BME280;23794;48.234;8.344;2023-02-19T06:49:59;94898.25;;;5.54;81.68
37972;BME280;23794;48.234;8.344;2023-02-19T06:52:26;94903.94;;;5.49;81.85
37972;BME280;23794;48.234;8.344;2023-02-19T06:54:56;94898.53;;;5.49;81.87
37972;BME280;23794;48.234;8.344;2023-02-19T06:57:23;94906.31;;;5.50;81.43
37972;BME280;23794;48.234;8.344;2023-02-19T06:59:52;94917.78;;;5.60;81.22
37972;BME280;23794;48.234;8.344;2023-02-19T07:02:19;94920.06;;;5.58;81.31
37972;BME280;23794;48.234;8.344;2023-02-19T07:04:58;94903.50;;;5.47;81.44
37972;BME280;23794;48.234;8.344;2023-02-19T07:07:30;94917.81;;;5.44;81.83
37972;BME280;23794;48.234;8.344;2023-02-19T07:09:57;94933.41;;;5.47;81.29
37972;BME280;23794;48.234;8.344;2023-02-19T07:12:24;94931.72;;;5.42;81.56
37972;BME280;23794;48.234;8.344;2023-02-19T07:14:53;94920.84;;;5.42;81.48
37972;BME280;23794;48.234;8.344;2023-02-19T07:17:20;94938.06;;;5.30;81.81
37972;BME280;23794;48.234;8.344;2023-02-19T07:19:47;94949.69;;;5.31;81.53
37972;BME280;23794;48.234;8.344;2023-02-19T07:22:17;94946.53;;;5.29;81.70
37972;BME280;23794;48.234;8.344;2023-02-19T07:24:44;94949.59;;;5.27;81.05
37972;BME280;23794;48.234;8.344;2023-02-19T07:27:14;94943.63;;;5.22;81.29
37972;BME280;23794;48.234;8.344;2023-02-19T07:29:40;94949.31;;;5.16;81.82
37972;BME280;23794;48.234;8.344;2023-02-19T07:32:07;94952.31;;;5.11;81.51
37972;BME280;23794;48.234;8.344;2023-02-19T07:34:36;94959.16;;;5.21;80.95
37972;BME280;23794;48.234;8.344;2023-02-19T07:37:03;94958.63;;;5.31;80.47
37972;BME280;23794;48.234;8.344;2023-02-19T07:39:30;94967.03;;;5.26;80.91
37972;BME280;23794;48.234;8.344;2023-02-19T07:41:57;94960.56;;;5.31;80.85
37972;BME280;23794;48.234;8.344;2023-02-19T07:44:25;94964.50;;;5.33;80.17
37972;BME280;23794;48.234;8.344;2023-02-19T07:46:52;94970.84;;;5.38;80.03
37972;BME280;23794;48.234;8.344;2023-02-19T07:49:21;94970.22;;;5.44;80.21
37972;BME280;23794;48.234;8.344;2023-02-19T07:51:48;94974.16;;;5.47;80.07
37972;BME280;23794;48.234;8.344;2023-02-19T07:54:15;94985.66;;;5.56;79.83
37972;BME280;23794;48.234;8.344;2023-02-19T07:56:42;94970.84;;;5.54;79.07
37972;BME280;23794;48.234;8.344;2023-02-19T07:59:08;94982.94;;;5.56;79.57
37972;BME280;23794;48.234;8.344;2023-02-19T08:01:36;94980.84;;;5.65;79.05
37972;BME280;23794;48.234;8.344;2023-02-19T08:04:22;94988.31;;;5.85;79.13
37972;BME280;23794;48.234;8.344;2023-02-19T08:06:48;94990.47;;;5.95;78.93
37972;BME280;23794;48.234;8.344;2023-02-19T08:09:15;94991.28;;;5.95;77.78
37972;BME280;23794;48.234;8.344;2023-02-19T08:11:42;94993.66;;;5.97;77.80
37972;BME280;23794;48.234;8.344;2023-02-19T08:14:29;95007.59;;;5.95;77.29
37972;BME280;23794;48.234;8.344;2023-02-19T08:16:55;95007.25;;;5.97;77.04
37972;BME280;23794;48.234;8.344;2023-02-19T08:19:23;94995.84;;;6.07;76.16
37972;BME280;23794;48.234;8.344;2023-02-19T08:21:50;95016.28;;;6.17;76.32
37972;BME280;23794;48.234;8.344;2023-02-19T08:24:19;95013.63;;;6.21;76.13
37972;BME280;23794;48.234;8.344;2023-02-19T08:26:46;95010.47;;;6.19;75.75
37972;BME280;23794;48.234;8.344;2023-02-19T08:29:13;95022.94;;;6.20;75.66
37972;BME280;23794;48.234;8.344;2023-02-19T08:31:40;95030.41;;;6.23;75.27
37972;BME280;23794;48.234;8.344;2023-02-19T08:34:07;95028.13;;;6.25;75.80
37972;BME280;23794;48.234;8.344;2023-02-19T08:36:34;95037.59;;;6.31;75.60
37972;BME280;23794;48.234;8.344;2023-02-19T08:39:01;95044.25;;;6.34;76.02
37972;BME280;23794;48.234;8.344;2023-02-19T08:41:27;95045.84;;;6.35;75.74
37972;BME280;23794;48.234;8.344;2023-02-19T08:43:54;95052.88;;;6.36;75.58
37972;BME280;23794;48.234;8.344;2023-02-19T08:46:21;95050.22;;;6.39;74.57
37972;BME280;23794;48.234;8.344;2023-02-19T08:48:48;95041.97;;;6.36;75.24
37972;BME280;23794;48.234;8.344;2023-02-19T08:51:15;95045.19;;;6.41;75.08
37972;BME280;23794;48.234;8.344;2023-02-19T08:53:41;95043.16;;;6.54;74.90
37972;BME280;23794;48.234;8.344;2023-02-19T08:56:11;95046.13;;;6.65;74.47
37972;BME280;23794;48.234;8.344;2023-02-19T08:58:38;95045.69;;;6.63;74.10
37972;BME280;23794;48.234;8.344;2023-02-19T09:01:13;95061.94;;;6.59;75.46
37972;BME280;23794;48.234;8.344;2023-02-19T09:03:41;95056.94;;;6.61;74.88
37972;BME280;23794;48.234;8.344;2023-02-19T09:06:13;95062.59;;;6.53;75.31
37972;BME280;23794;48.234;8.344;2023-02-19T09:08:40;95053.84;;;6.63;75.21
37972;BME280;23794;48.234;8.344;2023-02-19T09:11:07;95056.06;;;6.57;74.93
37972;BME280;23794;48.234;8.344;2023-02-19T09:13:34;95054.22;;;6.61;75.16
37972;BME280;23794;48.234;8.344;2023-02-19T09:16:04;95060.88;;;6.64;74.89
37972;BME280;23794;48.234;8.344;2023-02-19T09:18:31;95057.66;;;6.58;74.80
37972;BME280;23794;48.234;8.344;2023-02-19T09:21:00;95050.72;;;6.61;74.91
37972;BME280;23794;48.234;8.344;2023-02-19T09:23:32;95059.66;;;6.61;74.42
37972;BME280;23794;48.234;8.344;2023-02-19T09:26:00;95064.03;;;6.66;74.70
37972;BME280;23794;48.234;8.344;2023-02-19T09:28:29;95059.38;;;6.67;74.16
37972;BME280;23794;48.234;8.344;2023-02-19T09:31:02;95062.28;;;6.58;74.49
37972;BME280;23794;48.234;8.344;2023-02-19T09:33:30;95072.03;;;6.59;74.68
37972;BME280;23794;48.234;8.344;2023-02-19T09:35:58;95072.13;;;6.63;74.60
37972;BME280;23794;48.234;8.344;2023-02-19T09:38:26;95066.31;;;6.64;74.34
37972;BME280;23794;48.234;8.344;2023-02-19T09:41:04;95069.94;;;6.68;75.35
37972;BME280;23794;48.234;8.344;2023-02-19T09:43:39;95068.44;;;6.71;74.32
37972;BME280;23794;48.234;8.344;2023-02-19T09:46:31;95068.34;;;6.67;74.06
37972;BME280;23794;48.234;8.344;2023-02-19T09:49:27;95072.53;;;6.81;73.46
37972;BME280;23794;48.234;8.344;2023-02-19T09:52:22;95073.63;;;6.96;73.71
37972;BME280;23794;48.234;8.344;2023-02-19T09:55:17;95073.06;;;7.06;73.70
37972;BME280;23794;48.234;8.344;2023-02-19T09:57:59;95073.88;;;7.06;72.16
37972;BME280;23794;48.234;8.344;2023-02-19T10:00:29;95078.72;;;6.97;71.94
37972;BME280;23794;48.234;8.344;2023-02-19T10:03:22;95085.53;;;6.87;72.58
37972;BME280;23794;48.234;8.344;2023-02-19T10:05:53;95094.59;;;6.75;73.02
37972;BME280;23794;48.234;8.344;2023-02-19T10:08:24;95096.19;;;6.76;74.31
37972;BME280;23794;48.234;8.344;2023-02-19T10:10:52;95095.38;;;6.76;72.88
37972;BME280;23794;48.234;8.344;2023-02-19T10:13:32;95103.28;;;6.81;73.34
37972;BME280;23794;48.234;8.344;2023-02-19T10:16:03;95109.50;;;6.82;73.37
37972;BME280;23794;48.234;8.344;2023-02-19T10:18:38;95115.00;;;6.66;72.95
37972;BME280;23794;48.234;8.344;2023-02-19T10:21:26;95113.75;;;6.79;73.22
37972;BME280;23794;48.234;8.344;2023-02-19T10:24:00;95123.72;;;6.91;73.56
37972;BME280;23794;48.234;8.344;2023-02-19T10:26:28;95125.25;;;7.08;72.34
37972;BME280;23794;48.234;8.344;2023-02-19T10:29:01;95122.00;;;7.38;71.94
37972;BME280;23794;48.234;8.344;2023-02-19T10:31:32;95120.56;;;7.44;71.33
37972;BME280;23794;48.234;8.344;2023-02-19T10:34:00;95122.69;;;7.51;71.27
37972;BME280;23794;48.234;8.344;2023-02-19T10:36:34;95124.75;;;7.57;70.31
37972;BME280;23794;48.234;8.344;2023-02-19T10:39:07;95116.44;;;7.50;70.66
37972;BME280;23794;48.234;8.344;2023-02-19T10:41:43;95123.34;;;7.64;71.28
37972;BME280;23794;48.234;8.344;2023-02-19T10:44:17;95130.78;;;7.86;69.90
37972;BME280;23794;48.234;8.344;2023-02-19T10:46:50;95126.88;;;7.87;69.57
37972;BME280;23794;48.234;8.344;2023-02-19T10:49:41;95130.06;;;7.70;70.36
37972;BME280;23794;48.234;8.344;2023-02-19T10:52:25;95121.88;;;7.50;71.23
37972;BME280;23794;48.234;8.344;2023-02-19T10:55:15;95141.00;;;7.34;71.24
37972;BME280;23794;48.234;8.344;2023-02-19T10:57:42;95146.81;;;7.33;72.02
37972;BME280;23794;48.234;8.344;2023-02-19T11:02:43;95144.28;;;7.24;71.92
37972;BME280;23794;48.234;8.344;2023-02-19T11:05:14;95144.72;;;7.26;71.98
37972;BME280;23794;48.234;8.344;2023-02-19T11:07:53;95141.41;;;7.17;72.05
37972;BME280;23794;48.234;8.344;2023-02-19T11:13:03;95143.56;;;7.07;72.79
37972;BME280;23794;48.234;8.344;2023-02-19T11:15:33;95143.50;;;7.23;72.66
37972;BME280;23794;48.234;8.344;2023-02-19T11:18:06;95134.19;;;7.44;71.21
37972;BME280;23794;48.234;8.344;2023-02-19T11:20:52;95130.06;;;7.50;71.14
37972;BME280;23794;48.234;8.344;2023-02-19T11:23:43;95118.72;;;7.68;70.82
37972;BME280;23794;48.234;8.344;2023-02-19T11:26:23;95117.78;;;7.80;69.74
37972;BME280;23794;48.234;8.344;2023-02-19T11:28:55;95114.88;;;7.92;70.34
37972;BME280;23794;48.234;8.344;2023-02-19T11:31:31;95104.59;;;8.05;69.92
37972;BME280;23794;48.234;8.344;2023-02-19T11:37:13;95096.78;;;8.27;68.27
37972;BME280;23794;48.234;8.344;2023-02-19T11:39:47;95099.53;;;8.27;68.88
37972;BME280;23794;48.234;8.344;2023-02-19T11:42:57;95104.97;;;8.27;67.41
37972;BME280;23794;48.234;8.344;2023-02-19T11:45:39;95109.09;;;8.17;67.99
37972;BME280;23794;48.234;8.344;2023-02-19T11:50:57;95111.41;;;8.38;68.42
37972;BME280;23794;48.234;8.344;2023-02-19T11:53:33;95109.28;;;8.51;68.00
37972;BME280;23794;48.234;8.344;2023-02-19T11:56:29;95109.13;;;8.40;66.75
37972;BME280;23794;48.234;8.344;2023-02-19T11:59:32;95117.34;;;8.20;67.77
37972;BME280;23794;48.234;8.344;2023-02-19T12:05:17;95119.78;;;8.02;68.05
37972;BME280;23794;48.234;8.344;2023-02-19T12:11:18;95109.03;;;7.90;67.77
37972;BME280;23794;48.234;8.344;2023-02-19T12:16:02;95109.56;;;7.56;68.59
37972;BME280;23794;48.234;8.344;2023-02-19T12:18:57;95117.31;;;7.38;69.54
37972;BME280;23794;48.234;8.344;2023-02-19T12:24:43;95134.50;;;7.39;72.00
37972;BME280;23794;48.234;8.344;2023-02-19T12:27:37;95130.06;;;7.50;71.30
37972;BME280;23794;48.234;8.344;2023-02-19T12:35:24;95129.28;;;7.50;73.59
37972;BME280;23794;48.234;8.344;2023-02-19T12:38:08;95125.09;;;7.36;72.78
37972;BME280;23794;48.234;8.344;2023-02-19T12:43:26;95109.34;;;7.10;73.15
37972;BME280;23794;48.234;8.344;2023-02-19T12:46:06;95120.41;;;7.37;72.74
37972;BME280;23794;48.234;8.344;2023-02-19T12:48:42;95116.25;;;7.43;72.63
37972;BME280;23794;48.234;8.344;2023-02-19T12:54:05;95127.59;;;7.45;72.76
37972;BME280;23794;48.234;8.344;2023-02-19T12:56:46;95140.00;;;7.43;71.42
37972;BME280;23794;48.234;8.344;2023-02-19T13:02:16;95131.66;;;7.51;70.94
37972;BME280;23794;48.234;8.344;2023-02-19T13:05:01;95119.38;;;7.61;69.70
37972;BME280;23794;48.234;8.344;2023-02-19T13:12:43;95112.97;;;7.93;69.31
37972;BME280;23794;48.234;8.344;2023-02-19T13:15:31;95115.53;;;8.05;66.97
37972;BME280;23794;48.234;8.344;2023-02-19T13:18:02;95110.56;;;8.11;67.76
37972;BME280;23794;48.234;8.344;2023-02-19T13:20:37;95116.63;;;8.24;66.62
37972;BME280;23794;48.234;8.344;2023-02-19T13:23:12;95113.34;;;8.38;66.36
37972;BME280;23794;48.234;8.344;2023-02-19T13:26:37;95106.06;;;8.22;67.00
37972;BME280;23794;48.234;8.344;2023-02-19T13:32:33;95117.34;;;8.20;66.34
37972;BME280;23794;48.234;8.344;2023-02-19T13:38:11;95130.69;;;8.02;65.79
37972;BME280;23794;48.234;8.344;2023-02-19T13:40:40;95116.13;;;7.75;66.13
37972;BME280;23794;48.234;8.344;2023-02-19T13:45:54;95116.25;;;8.02;66.77
37972;BME280;23794;48.234;8.344;2023-02-19T13:48:31;95117.81;;;8.03;65.64
37972;BME280;23794;48.234;8.344;2023-02-19T13:58:57;95117.09;;;8.06;65.91
37972;BME280;23794;48.234;8.344;2023-02-19T14:22:45;95092.66;;;7.90;64.49
37972;BME280;23794;48.234;8.344;2023-02-19T14:30:33;95100.03;;;7.90;66.06
37972;BME280;23794;48.234;8.344;2023-02-19T14:33:02;95100.41;;;7.88;65.88
37972;BME280;23794;48.234;8.344;2023-02-19T14:35:41;95105.00;;;7.84;66.66
37972;BME280;23794;48.234;8.344;2023-02-19T14:38:17;95103.59;;;7.51;65.52
37972;BME280;23794;48.234;8.344;2023-02-19T14:40:52;95104.88;;;7.37;66.00
37972;BME280;23794;48.234;8.344;2023-02-19T14:43:28;95111.66;;;7.28;66.77
37972;BME280;23794;48.234;8.344;2023-02-19T14:48:48;95118.75;;;7.32;66.53
37972;BME280;23794;48.234;8.344;2023-02-19T14:51:38;95126.69;;;7.37;66.64
37972;BME280;23794;48.234;8.344;2023-02-19T14:54:44;95134.25;;;7.28;67.49
37972;BME280;23794;48.234;8.344;2023-02-19T14:57:19;95136.91;;;7.24;67.52
37972;BME280;23794;48.234;8.344;2023-02-19T14:59:56;95140.00;;;7.23;67.51
37972;BME280;23794;48.234;8.344;2023-02-19T15:02:29;95138.34;;;7.18;68.13
37972;BME280;23794;48.234;8.344;2023-02-19T15:04:58;95134.28;;;7.12;68.00
37972;BME280;23794;48.234;8.344;2023-02-19T15:07:34;95139.41;;;7.14;67.57
37972;BME280;23794;48.234;8.344;2023-02-19T15:10:12;95136.31;;;7.15;67.01
37972;BME280;23794;48.234;8.344;2023-02-19T15:13:03;95135.41;;;7.27;67.38
37972;BME280;23794;48.234;8.344;2023-02-19T15:15:35;95135.41;;;7.27;67.57
37972;BME280;23794;48.234;8.344;2023-02-19T15:18:35;95131.97;;;7.30;66.13
37972;BME280;23794;48.234;8.344;2023-02-19T15:21:03;95133.38;;;7.24;66.67
37972;BME280;23794;48.234;8.344;2023-02-19T15:23:33;95124.50;;;7.27;67.07
37972;BME280;23794;48.234;8.344;2023-02-19T15:26:02;95129.47;;;7.41;66.45
37972;BME280;23794;48.234;8.344;2023-02-19T15:28:32;95121.94;;;7.34;66.03
37972;BME280;23794;48.234;8.344;2023-02-19T15:33:29;95126.47;;;7.27;65.38
37972;BME280;23794;48.234;8.344;2023-02-19T15:36:03;95135.78;;;7.25;65.96
37972;BME280;23794;48.234;8.344;2023-02-19T15:38:32;95140.56;;;7.32;65.94
37972;BME280;23794;48.234;8.344;2023-02-19T15:41:18;95136.19;;;7.28;65.48
37972;BME280;23794;48.234;8.344;2023-02-19T15:46:29;95142.28;;;7.21;65.48
37972;BME280;23794;48.234;8.344;2023-02-19T15:49:06;95151.41;;;7.29;66.52